• Join FlightAware (Why Join?)
  • Login
  • US Flag 
06:44AM EDT


 

Airport Tracker/Info


-or-


 

Live Flight TrackerFlight Track Log ✈ N71AA ✈ 07-Aug-2013 ✈ KBFI - KYKM

Flight Track Log - Related Links

Times and Time Zones

All times are in EDT time to prevent confusion due to time zone crossing. See the N71AA flight status page for this flight to view local times or setup timezone preferences in your user account.

Time Position Orientation Groundspeed Altitude Reporting Facility
EDT Latitude Longitude Course Direction KTS MPH feet Rate Location/Type
04:31PM 47.5156 -122.2856 144° Southeast 151 174 1,200  Level Seattle Center
04:31PM 47.4914 -122.2597 144° Southeast 158 182 3,100 2,460 Climbing Seattle Center
04:32PM 47.4614 -122.1944 124° Southeast 190 219 5,800 2,520 Climbing Seattle Center
04:33PM 47.4411 -122.1236 113° Southeast 177 204 8,600 2,340 Climbing Seattle Center
04:35PM 47.4136 -122.0258 113° Southeast 189 217 11,600 1,920 Climbing Seattle Center
04:36PM 47.3889 -121.9400 113° Southeast 212 244 13,400 1,560 Climbing Seattle Center
04:37PM 47.3642 -121.8558 113° Southeast 225 259 14,900 1,080 Climbing Seattle Center
04:38PM 47.3208 -121.7767 129° Southeast 254 292 15,600 300 Climbing Seattle Center
04:39PM 47.2650 -121.6842 132° Southeast 283 326 15,600 -60 Level Seattle Center
04:40PM 47.2103 -121.5925 131° Southeast 300 345 15,500  Descending Seattle Center
04:41PM 47.1567 -121.5019 131° Southeast 298 343 15,600  Climbing Seattle Center
04:42PM 47.1025 -121.4133 132° Southeast 292 336 15,600  Level Seattle Center
04:43PM 47.0433 -121.3150 131° Southeast 298 343 15,600  Level Seattle Center
04:44PM 46.9894 -121.2264 132° Southeast 299 344 15,600  Level Seattle Center
04:45PM 46.9339 -121.1361 132° Southeast 302 348 15,600 -120 Level Seattle Center
04:46PM 46.8786 -121.0472 132° Southeast 296 341 15,400 -840 Descending Seattle Center
04:47PM 46.8233 -120.9528 131° Southeast 306 352 13,900 -1,680 Descending Seattle Center
04:48PM 46.7686 -120.8650 132° Southeast 293 337 12,000 -2,280 Descending Seattle Center
04:49PM 46.7092 -120.7692 132° Southeast 282 325 9,300 -2,580 Descending Seattle Center
04:50PM 46.6586 -120.6828 130° Southeast 282 325 6,800 -2,280 Descending Seattle Center
04:51PM 46.6119 -120.5903 126° Southeast 268 308 4,700 -1,620 Descending Seattle Center
04:52PM 46.5886 -120.5153 114° Southeast 206 237 3,600 -1,080 Descending Seattle Center
04:53PM 46.5664 -120.4731 127° Southeast 141 162 2,500 -1,080 Descending Seattle Center
04:54PM 46.5606 -120.5150 259° West 117 135 1,400 -720 Descending Seattle Center
04:55PM 46.5686 -120.5453 291° West 105 121 1,100 -300 Descending Seattle Center
04:57PM 46.5682 -120.5441 290° West  Level Estimated
05:04PM 46.5682 -120.5441 North  Level Estimated